Citadel — PBOK — position and weather

sailwx.info

Track history (hours):
 
Tides and Currents Weather Stations Pressure Air Temp Water Temp Dewpoint Dewpoint Depression Visibility Wind Speed Wind Dir Waves Ship Positions

Citadel

Last reported at 2015-Apr-30 08:03 UTC. Time now 2015-May-05 02:10 UTC.
Position N 39°21' E 003°32'.

Length 111 m; draft 5.6 m.

Type: Ship. MMSI: 245977000.

Date/timePositionNaut miles runAvg speedWind from/ knotsBaromVisibWave heightAir tempDewpointWater temp
2015-Apr-30 08:03N 39°21' E 003°32'5 9.4
2015-Apr-30 07:33N 39°19' E 003°27'9 9.2
2015-Apr-30 06:34N 39°14' E 003°17'1212.0
2015-Apr-30 05:33N 39°07' E 003°04'10 9.6
2015-Apr-30 04:33N 39°02' E 002°53'9 9.4
2015-Apr-30 03:33N 38°59' E 002°42'9 9.5
2015-Apr-30 02:33N 38°55' E 002°31'10 9.2
2015-Apr-30 01:31N 38°51' E 002°20'9 9.1
2015-Apr-30 00:33N 38°47' E 002°09'9 9.3
2015-Apr-29 23:33N 38°43' E 001°59'10 9.2
2015-Apr-29 22:29N 38°39' E 001°47'10 9.3
2015-Apr-29 21:23N 38°35' E 001°35'910.4
2015-Apr-29 20:33N 38°29' E 001°27'1110.6
2015-Apr-29 19:33N 38°23' E 001°16'1010.5
2015-Apr-29 18:33N 38°17' E 001°05'1611.2
2015-Apr-29 17:08N 38°08' E 000°49'5 9.4
2015-Apr-29 16:33N 38°04' E 000°43'9 9.4
2015-Apr-29 15:33N 37°59' E 000°34'10 9.6
2015-Apr-29 14:33N 37°53' E 000°24'9 9.6
2015-Apr-29 13:33N 37°47' E 000°14'10 9.6
2015-Apr-29 12:33N 37°42' E 000°04'10 9.8
2015-Apr-29 11:33N 37°36' W 000°06'10 9.5
2015-Apr-29 10:33N 37°30' W 000°16'10 9.4
2015-Apr-29 09:32N 37°24' W 000°24'10 9.6
2015-Apr-29 08:32N 37°16' W 000°31'1010.1
2015-Apr-29 07:33N 37°10' W 000°41'1010.1
2015-Apr-29 06:33N 37°04' W 000°51'1111.4
2015-Apr-29 05:33N 36°58' W 001°03'1110.8
2015-Apr-29 04:33N 36°52' W 001°15'1311.2
2015-Apr-29 03:25N 36°45' W 001°28'1011.0
2015-Apr-29 02:32N 36°40' W 001°38'2510.3
2015-Apr-29 00:09N 36°26' W 002°04'6 9.9
2015-Apr-28 23:33N 36°23' W 002°10'1210.0
2015-Apr-28 22:24N 36°20' W 002°24'910.5
2015-Apr-28 21:33N 36°19' W 002°35'1110.7
2015-Apr-28 20:33N 36°17' W 002°48'1410.1
2015-Apr-28 19:12N 36°14' W 003°04'10711.0
2015-Apr-28 09:29N 35°55' W 005°15'4 4.4
2015-Apr-28 08:34N 35°54' W 005°19'0 0.0
2015-Apr-28 07:34N 35°54' W 005°19'0 0.0
2015-Apr-28 06:34N 35°54' W 005°19'1 0.6
2015-Apr-28 05:34N 35°54' W 005°19'2 1.6
2015-Apr-28 04:33N 35°56' W 005°20'8 7.9
2015-Apr-28 03:33N 35°56' W 005°29'260 8.1
2015-Apr-26 19:29N 38°20' W 010°01'1010.5
2015-Apr-26 18:32N 38°30' W 010°03'1110.8
2015-Apr-26 17:33N 38°41' W 010°05'1111.1
2015-Apr-26 16:32N 38°52' W 010°06'1010.5
2015-Apr-26 15:33N 39°02' W 010°07'1010.3
2015-Apr-26 14:32N 39°13' W 010°07'  
2015-Apr-22 18:09N 50°18' W 004°20'6 8.8
2015-Apr-22 17:26N 50°19' W 004°11'3 3.8
2015-Apr-22 16:32N 50°22' W 004°08'0 0.0
2015-Apr-22 15:32N 50°22' W 004°08'0 0.0
2015-Apr-22 14:32N 50°22' W 004°08'0 0.0
2015-Apr-22 13:31N 50°22' W 004°08'0 0.0
2015-Apr-22 12:31N 50°22' W 004°08'0 0.0
2015-Apr-22 11:33N 50°22' W 004°08'0 0.0
2015-Apr-22 10:33N 50°22' W 004°08'0 0.0
2015-Apr-22 09:32N 50°22' W 004°08'0 0.0
2015-Apr-22 08:32N 50°22' W 004°08'0 0.0
2015-Apr-22 07:32N 50°22' W 004°08'0 0.0
2015-Apr-22 06:31N 50°22' W 004°08'0 0.0
2015-Apr-22 05:31N 50°22' W 004°08'0 0.0
2015-Apr-22 04:33N 50°22' W 004°08'0 0.0
2015-Apr-22 03:33N 50°22' W 004°08'0 0.0
2015-Apr-22 02:32N 50°22' W 004°08'0 0.0
2015-Apr-22 01:32N 50°22' W 004°08'0 0.0
2015-Apr-22 00:31N 50°22' W 004°08'0 0.0
2015-Apr-21 23:31N 50°22' W 004°08'0 0.0
2015-Apr-21 22:33N 50°22' W 004°08'0 0.0
2015-Apr-21 21:33N 50°22' W 004°08'3 2.7
2015-Apr-21 20:32N 50°20' W 004°10'2210.0
2015-Apr-21 18:22N 50°10' W 003°40'1012.6
2015-Apr-21 17:33N 50°11' W 003°24'1413.9
2015-Apr-21 16:33N 50°14' W 003°02'1515.3
2015-Apr-21 15:33N 50°16' W 002°39'1616.3
2015-Apr-21 14:33N 50°19' W 002°14'1615.5
2015-Apr-21 13:33N 50°21' W 001°50'1613.4
2015-Apr-21 12:23N 50°24' W 001°25'911.5
2015-Apr-21 11:33N 50°25' W 001°11'11 9.9
2015-Apr-21 10:26N 50°27' W 000°53'8 9.6
2015-Apr-21 09:33N 50°29' W 000°40'1110.6
2015-Apr-21 08:33N 50°30' W 000°24'1311.9
2015-Apr-21 07:28N 50°32' W 000°04'1213.3
2015-Apr-21 06:33N 50°35' E 000°15'1414.2
2015-Apr-21 05:33N 50°39' E 000°36'1414.1
2015-Apr-21 04:34N 50°47' E 000°55'1313.0
2015-Apr-21 03:33N 50°53' E 001°13'1111.1
2015-Apr-21 02:33N 51°01' E 001°26'10 9.9
2015-Apr-21 01:34N 51°08' E 001°36'1010.0
2015-Apr-21 00:33N 51°15' E 001°47'1212.5
2015-Apr-20 23:34N 51°26' E 001°58'1414.3
2015-Apr-20 22:33N 51°37' E 002°13'1515.0
2015-Apr-20 21:34N 51°48' E 002°29'1514.8
2015-Apr-20 20:34N 51°59' E 002°44'1414.0
2015-Apr-20 19:33N 52°10' E 002°59'1313.0
2015-Apr-20 18:33N 52°18' E 003°17'1212.4
2015-Apr-20 17:33N 52°25' E 003°33'1311.9
2015-Apr-20 16:26N 52°31' E 003°53'1012.1
2015-Apr-20 15:33N 52°31' E 004°10'1212.0
2015-Apr-20 14:33N 52°29' E 004°29'5 5.0
2015-Apr-20 13:33N 52°28' E 004°37'2 1.6
2015-Apr-20 12:33N 52°28' E 004°40'0 0.0
2015-Apr-20 11:33N 52°28' E 004°40'0 0.0
2015-Apr-20 10:33N 52°28' E 004°40'0 0.0
2015-Apr-20 09:33N 52°28' E 004°40'0 0.0
2015-Apr-20 08:33N 52°28' E 004°40'  
Track history (hours):
 
Tides and Currents Weather Stations Pressure Air Temp Water Temp Dewpoint Dewpoint Depression Visibility Wind Speed Wind Dir Waves Ship Positions

Citadel

Last reported at 2015-Apr-30 08:03 UTC. Time now 2015-May-05 02:10 UTC.
Position N 39°21' E 003°32'.

Length 111 m; draft 5.6 m.

Type: Ship. MMSI: 245977000.

Date/timePositionNaut miles runAvg speedWind from/ knotsBaromVisibWave heightAir tempDewpointWater temp
2015-Apr-30 08:03N 39°21' E 003°32'5 9.4
2015-Apr-30 07:33N 39°19' E 003°27'9 9.2
2015-Apr-30 06:34N 39°14' E 003°17'1212.0
2015-Apr-30 05:33N 39°07' E 003°04'10 9.6
2015-Apr-30 04:33N 39°02' E 002°53'9 9.4
2015-Apr-30 03:33N 38°59' E 002°42'9 9.5
2015-Apr-30 02:33N 38°55' E 002°31'10 9.2
2015-Apr-30 01:31N 38°51' E 002°20'9 9.1
2015-Apr-30 00:33N 38°47' E 002°09'9 9.3
2015-Apr-29 23:33N 38°43' E 001°59'10 9.2
2015-Apr-29 22:29N 38°39' E 001°47'10 9.3
2015-Apr-29 21:23N 38°35' E 001°35'910.4
2015-Apr-29 20:33N 38°29' E 001°27'1110.6
2015-Apr-29 19:33N 38°23' E 001°16'1010.5
2015-Apr-29 18:33N 38°17' E 001°05'1611.2
2015-Apr-29 17:08N 38°08' E 000°49'5 9.4
2015-Apr-29 16:33N 38°04' E 000°43'9 9.4
2015-Apr-29 15:33N 37°59' E 000°34'10 9.6
2015-Apr-29 14:33N 37°53' E 000°24'9 9.6
2015-Apr-29 13:33N 37°47' E 000°14'10 9.6
2015-Apr-29 12:33N 37°42' E 000°04'10 9.8
2015-Apr-29 11:33N 37°36' W 000°06'10 9.5
2015-Apr-29 10:33N 37°30' W 000°16'10 9.4
2015-Apr-29 09:32N 37°24' W 000°24'10 9.6
2015-Apr-29 08:32N 37°16' W 000°31'1010.1
2015-Apr-29 07:33N 37°10' W 000°41'1010.1
2015-Apr-29 06:33N 37°04' W 000°51'1111.4
2015-Apr-29 05:33N 36°58' W 001°03'1110.8
2015-Apr-29 04:33N 36°52' W 001°15'1311.2
2015-Apr-29 03:25N 36°45' W 001°28'1011.0
2015-Apr-29 02:32N 36°40' W 001°38'2510.3
2015-Apr-29 00:09N 36°26' W 002°04'6 9.9
2015-Apr-28 23:33N 36°23' W 002°10'1210.0
2015-Apr-28 22:24N 36°20' W 002°24'910.5
2015-Apr-28 21:33N 36°19' W 002°35'1110.7
2015-Apr-28 20:33N 36°17' W 002°48'1410.1
2015-Apr-28 19:12N 36°14' W 003°04'10711.0
2015-Apr-28 09:29N 35°55' W 005°15'4 4.4
2015-Apr-28 08:34N 35°54' W 005°19'0 0.0
2015-Apr-28 07:34N 35°54' W 005°19'0 0.0
2015-Apr-28 06:34N 35°54' W 005°19'1 0.6
2015-Apr-28 05:34N 35°54' W 005°19'2 1.6
2015-Apr-28 04:33N 35°56' W 005°20'8 7.9
2015-Apr-28 03:33N 35°56' W 005°29'260 8.1
2015-Apr-26 19:29N 38°20' W 010°01'1010.5
2015-Apr-26 18:32N 38°30' W 010°03'1110.8
2015-Apr-26 17:33N 38°41' W 010°05'1111.1
2015-Apr-26 16:32N 38°52' W 010°06'1010.5
2015-Apr-26 15:33N 39°02' W 010°07'1010.3
2015-Apr-26 14:32N 39°13' W 010°07'  
2015-Apr-22 18:09N 50°18' W 004°20'6 8.8
2015-Apr-22 17:26N 50°19' W 004°11'3 3.8
2015-Apr-22 16:32N 50°22' W 004°08'0 0.0
2015-Apr-22 15:32N 50°22' W 004°08'0 0.0
2015-Apr-22 14:32N 50°22' W 004°08'0 0.0
2015-Apr-22 13:31N 50°22' W 004°08'0 0.0
2015-Apr-22 12:31N 50°22' W 004°08'0 0.0
2015-Apr-22 11:33N 50°22' W 004°08'0 0.0
2015-Apr-22 10:33N 50°22' W 004°08'0 0.0
2015-Apr-22 09:32N 50°22' W 004°08'0 0.0
2015-Apr-22 08:32N 50°22' W 004°08'0 0.0
2015-Apr-22 07:32N 50°22' W 004°08'0 0.0
2015-Apr-22 06:31N 50°22' W 004°08'0 0.0
2015-Apr-22 05:31N 50°22' W 004°08'0 0.0
2015-Apr-22 04:33N 50°22' W 004°08'0 0.0
2015-Apr-22 03:33N 50°22' W 004°08'0 0.0
2015-Apr-22 02:32N 50°22' W 004°08'0 0.0
2015-Apr-22 01:32N 50°22' W 004°08'0 0.0
2015-Apr-22 00:31N 50°22' W 004°08'0 0.0
2015-Apr-21 23:31N 50°22' W 004°08'0 0.0
2015-Apr-21 22:33N 50°22' W 004°08'0 0.0
2015-Apr-21 21:33N 50°22' W 004°08'3 2.7
2015-Apr-21 20:32N 50°20' W 004°10'2210.0
2015-Apr-21 18:22N 50°10' W 003°40'1012.6
2015-Apr-21 17:33N 50°11' W 003°24'1413.9
2015-Apr-21 16:33N 50°14' W 003°02'1515.3
2015-Apr-21 15:33N 50°16' W 002°39'1616.3
2015-Apr-21 14:33N 50°19' W 002°14'1615.5
2015-Apr-21 13:33N 50°21' W 001°50'1613.4
2015-Apr-21 12:23N 50°24' W 001°25'911.5
2015-Apr-21 11:33N 50°25' W 001°11'11 9.9
2015-Apr-21 10:26N 50°27' W 000°53'8 9.6
2015-Apr-21 09:33N 50°29' W 000°40'1110.6
2015-Apr-21 08:33N 50°30' W 000°24'1311.9
2015-Apr-21 07:28N 50°32' W 000°04'1213.3
2015-Apr-21 06:33N 50°35' E 000°15'1414.2
2015-Apr-21 05:33N 50°39' E 000°36'1414.1
2015-Apr-21 04:34N 50°47' E 000°55'1313.0
2015-Apr-21 03:33N 50°53' E 001°13'1111.1
2015-Apr-21 02:33N 51°01' E 001°26'10 9.9
2015-Apr-21 01:34N 51°08' E 001°36'1010.0
2015-Apr-21 00:33N 51°15' E 001°47'1212.5
2015-Apr-20 23:34N 51°26' E 001°58'1414.3
2015-Apr-20 22:33N 51°37' E 002°13'1515.0
2015-Apr-20 21:34N 51°48' E 002°29'1514.8
2015-Apr-20 20:34N 51°59' E 002°44'1414.0
2015-Apr-20 19:33N 52°10' E 002°59'1313.0
2015-Apr-20 18:33N 52°18' E 003°17'1212.4
2015-Apr-20 17:33N 52°25' E 003°33'1311.9
2015-Apr-20 16:26N 52°31' E 003°53'1012.1
2015-Apr-20 15:33N 52°31' E 004°10'1212.0
2015-Apr-20 14:33N 52°29' E 004°29'5 5.0
2015-Apr-20 13:33N 52°28' E 004°37'2 1.6
2015-Apr-20 12:33N 52°28' E 004°40'0 0.0
2015-Apr-20 11:33N 52°28' E 004°40'0 0.0
2015-Apr-20 10:33N 52°28' E 004°40'0 0.0
2015-Apr-20 09:33N 52°28' E 004°40'0 0.0
2015-Apr-20 08:33N 52°28' E 004°40'  

Dump ship's entire track history